Terminal Aerodrome Forecast
Issued by NWS

Home | Current Version | Previous Version | Text Only | Print | Product List | Glossary On
Versions: 1 2 3 4 5 6 7 8 9 10 11 12 13 14 15 16
000
FTUS45 KFGZ 091138
TAFGCN
TAF
KGCN 091138Z 0912/1012 VRB02KT P6SM OVC018
     FM091600 23007KT P6SM SCT030 BKN150
     FM100100 VRB03KT P6SM SCT025 SCT250=

USA.gov is the U.S. government's official web portal to all federal, state and local government web resources and services.